sensor_id;sensor_type;location;lat;lon;timestamp;P1;durP1;ratioP1;P2;durP2;ratioP2
76837;SDS011;65797;47.352;8.164;2023-09-07T04:54:28;6.73;;;4.70;;
76837;SDS011;65797;47.352;8.164;2023-09-07T05:02:04;5.90;;;4.70;;
76837;SDS011;65797;47.352;8.164;2023-09-07T11:38:35;7.50;;;4.60;;
76837;SDS011;65797;47.352;8.164;2023-09-07T11:41:02;8.13;;;5.33;;
76837;SDS011;65797;47.352;8.164;2023-09-07T11:43:28;11.03;;;5.10;;
76837;SDS011;65797;47.352;8.164;2023-09-07T11:45:54;8.97;;;4.90;;
76837;SDS011;65797;47.352;8.164;2023-09-07T11:48:20;11.43;;;5.10;;
76837;SDS011;65797;47.352;8.164;2023-09-07T11:50:45;8.70;;;4.47;;
76837;SDS011;65797;47.352;8.164;2023-09-07T11:53:11;7.90;;;5.07;;
76837;SDS011;65797;47.352;8.164;2023-09-07T11:55:37;9.27;;;4.50;;
76837;SDS011;65797;47.352;8.164;2023-09-07T11:58:04;10.43;;;4.77;;
76837;SDS011;65797;47.352;8.164;2023-09-07T12:00:30;7.00;;;5.27;;
76837;SDS011;65797;47.352;8.164;2023-09-07T12:02:56;6.93;;;4.70;;
76837;SDS011;65797;47.352;8.164;2023-09-07T12:05:22;7.30;;;4.20;;
76837;SDS011;65797;47.352;8.164;2023-09-07T12:07:49;5.23;;;4.73;;
76837;SDS011;65797;47.352;8.164;2023-09-07T12:10:15;6.70;;;3.93;;
76837;SDS011;65797;47.352;8.164;2023-09-07T12:12:41;7.90;;;4.97;;
76837;SDS011;65797;47.352;8.164;2023-09-07T12:15:07;8.23;;;5.03;;
76837;SDS011;65797;47.352;8.164;2023-09-07T12:17:34;6.40;;;4.53;;
76837;SDS011;65797;47.352;8.164;2023-09-07T12:20:00;4.60;;;4.20;;
76837;SDS011;65797;47.352;8.164;2023-09-07T12:22:26;9.23;;;4.50;;
76837;SDS011;65797;47.352;8.164;2023-09-07T12:24:52;5.07;;;4.57;;
76837;SDS011;65797;47.352;8.164;2023-09-07T12:27:18;6.40;;;4.67;;
76837;SDS011;65797;47.352;8.164;2023-09-07T12:29:44;5.47;;;4.43;;
76837;SDS011;65797;47.352;8.164;2023-09-07T12:32:10;9.43;;;4.40;;
76837;SDS011;65797;47.352;8.164;2023-09-07T12:34:36;4.90;;;4.07;;
76837;SDS011;65797;47.352;8.164;2023-09-07T12:37:02;10.97;;;3.77;;
76837;SDS011;65797;47.352;8.164;2023-09-07T12:39:31;5.33;;;4.57;;
76837;SDS011;65797;47.352;8.164;2023-09-07T12:41:57;4.40;;;4.00;;
76837;SDS011;65797;47.352;8.164;2023-09-07T12:44:23;7.23;;;4.27;;
76837;SDS011;65797;47.352;8.164;2023-09-07T12:46:49;5.37;;;3.97;;
76837;SDS011;65797;47.352;8.164;2023-09-07T12:49:15;13.03;;;4.50;;
76837;SDS011;65797;47.352;8.164;2023-09-07T12:51:41;3.73;;;3.30;;
76837;SDS011;65797;47.352;8.164;2023-09-07T12:54:07;5.90;;;4.63;;
76837;SDS011;65797;47.352;8.164;2023-09-07T12:56:33;4.33;;;3.80;;
76837;SDS011;65797;47.352;8.164;2023-09-07T12:58:59;4.87;;;4.10;;
76837;SDS011;65797;47.352;8.164;2023-09-07T13:01:28;5.97;;;3.60;;
76837;SDS011;65797;47.352;8.164;2023-09-07T13:03:54;4.37;;;3.90;;
76837;SDS011;65797;47.352;8.164;2023-09-07T13:06:20;8.33;;;4.17;;
76837;SDS011;65797;47.352;8.164;2023-09-07T13:08:46;4.87;;;3.87;;
76837;SDS011;65797;47.352;8.164;2023-09-07T13:11:11;10.60;;;4.60;;
76837;SDS011;65797;47.352;8.164;2023-09-07T13:13:37;4.23;;;3.93;;
76837;SDS011;65797;47.352;8.164;2023-09-07T13:16:03;5.60;;;3.73;;
76837;SDS011;65797;47.352;8.164;2023-09-07T13:18:29;6.37;;;4.90;;
76837;SDS011;65797;47.352;8.164;2023-09-07T13:20:56;5.00;;;4.10;;
76837;SDS011;65797;47.352;8.164;2023-09-07T13:23:26;5.90;;;4.30;;
76837;SDS011;65797;47.352;8.164;2023-09-07T13:25:53;7.83;;;4.27;;
76837;SDS011;65797;47.352;8.164;2023-09-07T13:28:21;6.10;;;4.90;;
76837;SDS011;65797;47.352;8.164;2023-09-07T13:30:46;5.07;;;4.40;;
76837;SDS011;65797;47.352;8.164;2023-09-07T13:33:12;4.90;;;3.90;;
76837;SDS011;65797;47.352;8.164;2023-09-07T13:35:38;5.00;;;4.23;;
76837;SDS011;65797;47.352;8.164;2023-09-07T13:38:05;6.90;;;3.70;;
76837;SDS011;65797;47.352;8.164;2023-09-07T13:40:31;5.50;;;4.53;;
76837;SDS011;65797;47.352;8.164;2023-09-07T13:42:56;5.20;;;4.37;;
76837;SDS011;65797;47.352;8.164;2023-09-07T13:45:22;16.03;;;4.80;;
76837;SDS011;65797;47.352;8.164;2023-09-07T13:47:48;7.60;;;5.17;;
76837;SDS011;65797;47.352;8.164;2023-09-07T13:50:14;8.00;;;4.53;;
76837;SDS011;65797;47.352;8.164;2023-09-07T13:52:39;5.37;;;4.60;;
76837;SDS011;65797;47.352;8.164;2023-09-07T13:55:05;12.30;;;5.03;;
76837;SDS011;65797;47.352;8.164;2023-09-07T13:57:32;4.50;;;3.87;;
76837;SDS011;65797;47.352;8.164;2023-09-07T13:59:58;6.27;;;4.13;;
76837;SDS011;65797;47.352;8.164;2023-09-07T14:02:24;4.57;;;3.60;;
76837;SDS011;65797;47.352;8.164;2023-09-07T14:04:50;5.90;;;4.27;;
76837;SDS011;65797;47.352;8.164;2023-09-07T14:07:16;5.03;;;4.63;;
76837;SDS011;65797;47.352;8.164;2023-09-07T14:09:42;3.77;;;3.57;;
76837;SDS011;65797;47.352;8.164;2023-09-07T14:12:08;6.37;;;4.17;;
76837;SDS011;65797;47.352;8.164;2023-09-07T14:14:34;9.43;;;4.77;;
76837;SDS011;65797;47.352;8.164;2023-09-07T14:16:59;8.30;;;4.50;;
76837;SDS011;65797;47.352;8.164;2023-09-07T14:19:25;5.83;;;4.30;;
76837;SDS011;65797;47.352;8.164;2023-09-07T14:21:56;5.73;;;3.83;;
76837;SDS011;65797;47.352;8.164;2023-09-07T14:24:23;9.90;;;4.20;;
76837;SDS011;65797;47.352;8.164;2023-09-07T14:26:49;7.97;;;4.30;;
76837;SDS011;65797;47.352;8.164;2023-09-07T14:29:15;4.37;;;3.93;;
76837;SDS011;65797;47.352;8.164;2023-09-07T14:31:40;8.97;;;4.37;;
76837;SDS011;65797;47.352;8.164;2023-09-07T14:34:08;6.40;;;4.30;;
76837;SDS011;65797;47.352;8.164;2023-09-07T14:36:34;5.07;;;4.20;;
76837;SDS011;65797;47.352;8.164;2023-09-07T14:39:00;5.93;;;3.90;;
76837;SDS011;65797;47.352;8.164;2023-09-07T14:41:27;10.23;;;4.17;;
76837;SDS011;65797;47.352;8.164;2023-09-07T14:43:55;8.47;;;4.17;;
76837;SDS011;65797;47.352;8.164;2023-09-07T14:46:21;6.10;;;4.13;;
76837;SDS011;65797;47.352;8.164;2023-09-07T14:48:48;9.10;;;3.97;;
76837;SDS011;65797;47.352;8.164;2023-09-07T14:51:14;4.03;;;3.73;;
76837;SDS011;65797;47.352;8.164;2023-09-07T14:53:40;4.17;;;3.87;;
76837;SDS011;65797;47.352;8.164;2023-09-07T14:56:06;4.73;;;4.33;;
76837;SDS011;65797;47.352;8.164;2023-09-07T14:58:32;4.87;;;4.10;;
76837;SDS011;65797;47.352;8.164;2023-09-07T15:00:58;4.23;;;3.80;;
76837;SDS011;65797;47.352;8.164;2023-09-07T15:03:23;6.43;;;3.97;;
76837;SDS011;65797;47.352;8.164;2023-09-07T15:05:49;8.03;;;3.83;;
76837;SDS011;65797;47.352;8.164;2023-09-07T15:08:15;4.53;;;4.13;;
76837;SDS011;65797;47.352;8.164;2023-09-07T15:10:41;4.70;;;3.87;;
76837;SDS011;65797;47.352;8.164;2023-09-07T15:13:07;4.40;;;4.00;;
76837;SDS011;65797;47.352;8.164;2023-09-07T15:15:33;6.17;;;3.70;;
76837;SDS011;65797;47.352;8.164;2023-09-07T15:18:02;4.20;;;3.83;;
76837;SDS011;65797;47.352;8.164;2023-09-07T15:20:28;4.13;;;3.70;;
76837;SDS011;65797;47.352;8.164;2023-09-07T15:22:54;4.73;;;3.33;;
76837;SDS011;65797;47.352;8.164;2023-09-07T15:25:20;4.47;;;3.80;;
76837;SDS011;65797;47.352;8.164;2023-09-07T15:27:46;3.70;;;3.40;;
76837;SDS011;65797;47.352;8.164;2023-09-07T15:30:12;3.73;;;3.43;;
76837;SDS011;65797;47.352;8.164;2023-09-07T15:32:39;5.77;;;3.17;;
76837;SDS011;65797;47.352;8.164;2023-09-07T15:35:06;8.97;;;3.97;;
76837;SDS011;65797;47.352;8.164;2023-09-07T15:37:32;4.13;;;3.67;;
76837;SDS011;65797;47.352;8.164;2023-09-07T15:39:58;3.43;;;3.13;;
76837;SDS011;65797;47.352;8.164;2023-09-07T15:47:35;4.10;;;3.70;;
76837;SDS011;65797;47.352;8.164;2023-09-07T15:50:00;6.70;;;3.10;;
76837;SDS011;65797;47.352;8.164;2023-09-07T15:52:27;8.13;;;3.27;;
76837;SDS011;65797;47.352;8.164;2023-09-07T16:52:34;4.40;;;3.80;;
76837;SDS011;65797;47.352;8.164;2023-09-07T16:55:00;3.90;;;3.50;;
76837;SDS011;65797;47.352;8.164;2023-09-07T16:57:29;3.70;;;3.40;;
76837;SDS011;65797;47.352;8.164;2023-09-07T16:59:57;3.33;;;3.00;;
76837;SDS011;65797;47.352;8.164;2023-09-07T17:10:10;6.93;;;3.50;;
76837;SDS011;65797;47.352;8.164;2023-09-07T17:22:57;6.57;;;3.87;;
76837;SDS011;65797;47.352;8.164;2023-09-07T17:25:23;5.13;;;3.93;;
76837;SDS011;65797;47.352;8.164;2023-09-07T17:27:48;3.63;;;3.33;;
76837;SDS011;65797;47.352;8.164;2023-09-07T17:30:14;4.00;;;3.57;;
76837;SDS011;65797;47.352;8.164;2023-09-07T17:32:40;4.47;;;3.87;;
76837;SDS011;65797;47.352;8.164;2023-09-07T17:35:06;3.80;;;3.50;;
76837;SDS011;65797;47.352;8.164;2023-09-07T17:37:32;7.50;;;4.30;;
76837;SDS011;65797;47.352;8.164;2023-09-07T17:39:58;5.70;;;3.23;;
76837;SDS011;65797;47.352;8.164;2023-09-07T17:42:24;7.63;;;3.60;;
76837;SDS011;65797;47.352;8.164;2023-09-07T17:44:50;9.57;;;4.50;;
76837;SDS011;65797;47.352;8.164;2023-09-07T17:47:16;6.40;;;3.70;;
76837;SDS011;65797;47.352;8.164;2023-09-07T17:49:43;4.40;;;3.97;;
76837;SDS011;65797;47.352;8.164;2023-09-07T17:52:09;5.73;;;3.90;;
76837;SDS011;65797;47.352;8.164;2023-09-07T17:54:35;7.30;;;4.40;;
76837;SDS011;65797;47.352;8.164;2023-09-07T17:57:01;4.83;;;3.67;;
76837;SDS011;65797;47.352;8.164;2023-09-07T19:44:39;14.37;;;6.10;;
76837;SDS011;65797;47.352;8.164;2023-09-07T19:47:04;10.77;;;5.87;;
76837;SDS011;65797;47.352;8.164;2023-09-07T19:49:31;8.10;;;5.00;;
76837;SDS011;65797;47.352;8.164;2023-09-07T19:51:57;7.80;;;5.40;;
76837;SDS011;65797;47.352;8.164;2023-09-07T19:54:22;7.53;;;4.60;;
76837;SDS011;65797;47.352;8.164;2023-09-07T19:56:48;5.63;;;4.87;;
76837;SDS011;65797;47.352;8.164;2023-09-07T19:59:14;7.43;;;4.97;;
76837;SDS011;65797;47.352;8.164;2023-09-07T20:01:56;7.90;;;5.50;;
76837;SDS011;65797;47.352;8.164;2023-09-07T20:04:23;7.40;;;5.10;;
76837;SDS011;65797;47.352;8.164;2023-09-07T20:06:49;10.60;;;5.50;;
76837;SDS011;65797;47.352;8.164;2023-09-07T20:09:16;8.03;;;5.63;;
76837;SDS011;65797;47.352;8.164;2023-09-07T20:11:45;5.17;;;4.67;;
76837;SDS011;65797;47.352;8.164;2023-09-07T20:14:14;7.50;;;4.73;;
76837;SDS011;65797;47.352;8.164;2023-09-07T20:16:40;5.93;;;5.10;;
76837;SDS011;65797;47.352;8.164;2023-09-07T20:19:06;6.77;;;4.70;;
76837;SDS011;65797;47.352;8.164;2023-09-07T20:21:32;5.33;;;4.80;;
76837;SDS011;65797;47.352;8.164;2023-09-07T20:23:58;5.80;;;4.87;;
76837;SDS011;65797;47.352;8.164;2023-09-07T20:26:24;12.50;;;5.07;;
76837;SDS011;65797;47.352;8.164;2023-09-07T20:28:50;10.80;;;4.53;;
76837;SDS011;65797;47.352;8.164;2023-09-07T20:31:17;5.63;;;5.13;;
76837;SDS011;65797;47.352;8.164;2023-09-07T20:33:43;5.20;;;4.70;;
76837;SDS011;65797;47.352;8.164;2023-09-07T20:36:13;5.20;;;4.70;;
76837;SDS011;65797;47.352;8.164;2023-09-07T20:38:40;5.43;;;4.93;;
76837;SDS011;65797;47.352;8.164;2023-09-07T20:41:06;7.63;;;5.50;;
76837;SDS011;65797;47.352;8.164;2023-09-07T20:43:32;6.53;;;5.60;;
76837;SDS011;65797;47.352;8.164;2023-09-07T20:45:58;7.30;;;6.20;;
76837;SDS011;65797;47.352;8.164;2023-09-07T20:48:23;6.27;;;5.67;;
